Time;durP1;ratioP1;P1;durP2;ratioP2;P2;SDS_P1;SDS_P2;PMS_P1;PMS_P2;Temp;Humidity;BMP_temperature;BMP_pressure;BME280_temperature;BME280_humidity;BME280_pressure;Samples;Min_cycle;Max_cycle;Signal;HPM_P1;HPM_P2
2021/05/30 00:01:25;;;;;;;6.35;4.10;;;;;;;10.81;70.64;96973.63;5029906;28;20053;-69
2021/05/30 00:03:52;;;;;;;6.15;4.20;;;;;;;10.80;69.76;96972.00;5030683;28;20052;-69
2021/05/30 00:06:17;;;;;;;6.75;4.70;;;;;;;10.73;70.04;96969.69;5030126;28;20056;-69
2021/05/30 00:08:43;;;;;;;8.57;4.57;;;;;;;10.70;70.66;96967.56;5030655;28;20045;-69
2021/05/30 00:11:11;;;;;;;7.70;4.65;;;;;;;10.69;70.39;96972.19;5030167;28;20053;-69
2021/05/30 00:13:37;;;;;;;7.20;4.88;;;;;;;10.70;70.15;96979.28;5030411;28;20042;-68
2021/05/30 00:16:04;;;;;;;9.15;5.32;;;;;;;10.68;69.72;96976.03;5033826;28;20045;-68
2021/05/30 00:18:30;;;;;;;8.00;5.00;;;;;;;10.68;69.34;96970.59;5034158;28;20049;-68
2021/05/30 00:20:56;;;;;;;8.85;5.57;;;;;;;10.66;70.22;96972.81;5034325;28;20378;-69
2021/05/30 00:23:22;;;;;;;8.02;5.00;;;;;;;10.62;70.40;96962.84;5033298;28;20049;-69
2021/05/30 00:25:48;;;;;;;7.93;4.93;;;;;;;10.57;70.85;96958.28;5033586;28;20121;-69
2021/05/30 00:28:14;;;;;;;9.40;5.22;;;;;;;10.58;69.98;96964.53;5033354;28;20053;-69
2021/05/30 00:30:41;;;;;;;8.90;4.90;;;;;;;10.55;69.94;96967.88;5038076;28;20531;-69
2021/05/30 00:33:07;;;;;;;7.35;5.55;;;;;;;10.50;70.59;96968.78;5053406;28;20041;-68
2021/05/30 00:35:33;;;;;;;8.10;4.95;;;;;;;10.45;71.03;96960.72;5053427;28;20451;-68
2021/05/30 00:38:00;;;;;;;8.75;5.53;;;;;;;10.42;70.85;96964.03;5053564;28;20040;-68
2021/05/30 00:40:26;;;;;;;7.30;4.97;;;;;;;10.40;71.17;96969.78;5053139;28;20163;-68
2021/05/30 00:42:52;;;;;;;8.90;5.82;;;;;;;10.39;71.00;96967.38;5053741;28;20098;-69
2021/05/30 00:45:18;;;;;;;8.30;5.25;;;;;;;10.34;71.37;96962.03;5053205;28;20087;-69
2021/05/30 00:47:44;;;;;;;8.55;5.60;;;;;;;10.32;71.46;96956.88;5053374;28;20056;-69
2021/05/30 00:50:12;;;;;;;8.27;5.30;;;;;;;10.30;70.94;96958.28;5052853;28;20045;-69
2021/05/30 00:52:41;;;;;;;8.82;5.50;;;;;;;10.26;71.49;96965.44;5053126;28;20167;-69
2021/05/30 00:55:10;;;;;;;7.68;5.80;;;;;;;10.27;70.99;96964.31;5052742;28;20049;-69
2021/05/30 00:57:36;;;;;;;6.65;4.80;;;;;;;10.26;70.46;96957.28;5053406;28;20041;-69
2021/05/30 01:00:05;;;;;;;10.02;6.00;;;;;;;10.25;70.92;96967.34;5052790;28;20063;-69
2021/05/30 01:02:31;;;;;;;8.07;5.50;;;;;;;10.23;71.41;96946.94;5033368;28;20045;-69
2021/05/30 01:04:57;;;;;;;8.05;5.90;;;;;;;10.20;71.47;96954.63;5033116;28;20052;-69
2021/05/30 01:07:24;;;;;;;9.10;5.18;;;;;;;10.19;71.45;96958.44;5032707;28;20095;-69
2021/05/30 01:09:51;;;;;;;8.40;5.65;;;;;;;10.16;71.73;96953.59;5033114;28;20716;-69
2021/05/30 01:12:20;;;;;;;8.57;6.00;;;;;;;10.16;71.75;96950.88;5032431;28;20080;-69
2021/05/30 01:14:46;;;;;;;8.10;5.63;;;;;;;10.11;71.55;96953.69;5033440;28;20043;-69
2021/05/30 01:17:13;;;;;;;8.75;5.50;;;;;;;10.07;71.57;96954.59;5032424;28;20048;-69
2021/05/30 01:19:39;;;;;;;7.40;5.50;;;;;;;10.06;72.05;96958.41;5032997;28;20052;-69
2021/05/30 01:22:08;;;;;;;9.10;5.93;;;;;;;9.99;71.60;96953.38;5032438;28;20053;-68
2021/05/30 01:24:36;;;;;;;8.27;5.43;;;;;;;9.95;71.69;96963.22;5032970;28;20459;-69
2021/05/30 01:27:02;;;;;;;9.90;5.78;;;;;;;9.91;71.60;96960.28;5031721;28;20496;-69
2021/05/30 01:29:28;;;;;;;9.25;5.80;;;;;;;9.90;71.44;96961.41;5032725;28;20378;-69
2021/05/30 01:31:54;;;;;;;7.30;5.50;;;;;;;9.87;71.99;96956.59;5032623;28;20052;-69
2021/05/30 01:34:20;;;;;;;6.88;4.95;;;;;;;9.88;71.93;96958.19;5032263;28;20052;-69
2021/05/30 01:36:46;;;;;;;8.25;5.03;;;;;;;9.89;71.74;96961.72;5032686;28;20050;-70
2021/05/30 01:39:12;;;;;;;7.00;4.97;;;;;;;9.82;71.24;96961.31;5032302;28;20052;-69
2021/05/30 01:41:39;;;;;;;7.43;5.18;;;;;;;9.81;71.17;96973.25;5032701;28;20061;-69
2021/05/30 01:44:05;;;;;;;6.35;4.82;;;;;;;9.82;70.28;96974.91;5032256;28;20049;-69
2021/05/30 01:46:31;;;;;;;6.35;4.80;;;;;;;9.76;70.52;96971.47;5032721;28;20064;-69
2021/05/30 01:48:58;;;;;;;7.35;5.10;;;;;;;9.71;70.69;96974.25;5032316;28;20053;-69
2021/05/30 01:51:24;;;;;;;8.32;5.60;;;;;;;9.63;71.05;96974.94;5031700;28;20409;-69
2021/05/30 01:53:53;;;;;;;7.35;5.70;;;;;;;9.57;71.62;96979.63;5032111;28;20120;-69
2021/05/30 01:59:04;;;;;;;7.28;5.95;;;;;;;9.48;72.88;96975.16;5032122;28;20060;-69
2021/05/30 02:01:31;;;;;;;7.15;5.68;;;;;;;9.44;72.67;96985.81;5032505;28;20048;-69
2021/05/30 02:03:58;;;;;;;8.68;6.13;;;;;;;9.42;73.09;96982.59;5032250;28;20045;-69
2021/05/30 02:06:25;;;;;;;8.32;5.68;;;;;;;9.41;73.27;96980.97;5031513;28;20091;-69
2021/05/30 02:08:52;;;;;;;8.38;5.82;;;;;;;9.41;73.39;96975.53;5032241;28;20052;-69
2021/05/30 02:11:19;;;;;;;7.40;5.30;;;;;;;9.44;72.36;96980.38;5031365;28;20083;-69
2021/05/30 02:13:45;;;;;;;7.60;5.45;;;;;;;9.44;71.33;96985.00;5031911;28;20041;-68
2021/05/30 02:16:11;;;;;;;7.72;5.30;;;;;;;9.43;71.52;96981.47;5031650;28;20052;-69
2021/05/30 02:18:37;;;;;;;6.93;5.28;;;;;;;9.40;72.22;96985.63;5031795;28;20405;-69
2021/05/30 02:21:04;;;;;;;9.30;4.93;;;;;;;9.40;72.14;96984.81;5031293;28;20041;-69
2021/05/30 02:23:31;;;;;;;7.70;5.25;;;;;;;9.36;70.69;96990.03;5031594;28;20050;-69
2021/05/30 02:25:57;;;;;;;6.32;4.80;;;;;;;9.31;71.19;96989.28;5031596;28;20045;-69
2021/05/30 02:28:23;;;;;;;7.20;5.63;;;;;;;9.25;71.44;96988.56;5031124;28;20068;-69
2021/05/30 02:30:49;;;;;;;8.13;5.47;;;;;;;9.15;72.00;96989.50;5029301;28;20041;-69
2021/05/30 02:33:16;;;;;;;7.03;5.57;;;;;;;9.11;71.96;96993.91;5030900;28;20046;-69
2021/05/30 02:35:42;;;;;;;8.70;6.15;;;;;;;9.08;72.34;96988.22;5031621;28;20068;-69
2021/05/30 02:38:08;;;;;;;7.93;6.38;;;;;;;9.06;73.09;96991.25;5030280;28;20521;-68
2021/05/30 02:40:34;;;;;;;8.02;6.30;;;;;;;9.06;73.55;96990.44;5031539;28;20161;-69
2021/05/30 02:43:01;;;;;;;9.13;6.65;;;;;;;9.07;73.90;96989.34;5031516;28;20496;-69
2021/05/30 02:45:27;;;;;;;9.15;5.90;;;;;;;9.08;74.07;96993.66;5030972;28;20091;-69
2021/05/30 02:47:53;;;;;;;9.50;6.18;;;;;;;9.05;73.14;96986.91;5031266;28;20045;-69
2021/05/30 02:50:20;;;;;;;8.98;6.45;;;;;;;9.02;73.10;96984.78;5030866;28;20106;-69
2021/05/30 02:52:46;;;;;;;7.93;5.60;;;;;;;9.02;73.22;96984.78;5031065;28;20071;-69
2021/05/30 02:55:13;;;;;;;10.30;5.97;;;;;;;9.01;72.92;96983.16;5030618;28;20103;-69
2021/05/30 02:57:39;;;;;;;9.00;6.38;;;;;;;9.02;72.92;96994.84;5031180;28;20046;-69
2021/05/30 03:00:07;;;;;;;9.18;6.63;;;;;;;9.01;72.95;96994.03;5030773;28;20087;-69
2021/05/30 03:02:33;;;;;;;8.98;6.13;;;;;;;8.99;72.63;96998.16;5031719;28;20045;-69
2021/05/30 03:04:59;;;;;;;8.18;6.13;;;;;;;9.00;72.61;97006.00;5031078;28;20077;-69
2021/05/30 03:07:27;;;;;;;8.98;6.30;;;;;;;9.01;71.93;96999.47;5030623;28;20607;-69
2021/05/30 03:09:53;;;;;;;9.27;6.22;;;;;;;9.02;71.85;97006.50;5031126;28;20041;-69
2021/05/30 03:12:19;;;;;;;8.40;6.22;;;;;;;8.99;71.91;97012.53;5030473;28;20420;-69
2021/05/30 03:14:45;;;;;;;9.35;6.68;;;;;;;8.93;72.20;97011.00;5030981;28;20133;-69
2021/05/30 03:17:11;;;;;;;9.65;6.68;;;;;;;8.82;72.10;97007.59;5030701;28;20052;-69
2021/05/30 03:19:37;;;;;;;9.75;6.38;;;;;;;8.82;72.95;97012.19;5030951;28;20103;-69
2021/05/30 03:22:04;;;;;;;9.13;6.72;;;;;;;8.80;73.75;97015.22;5030641;28;20083;-69
2021/05/30 03:24:31;;;;;;;9.07;6.95;;;;;;;8.80;73.56;97014.41;5030765;28;20570;-69
2021/05/30 03:26:57;;;;;;;9.43;6.95;;;;;;;8.82;74.29;97017.63;5030996;28;20046;-69
2021/05/30 03:29:23;;;;;;;10.25;7.20;;;;;;;8.81;73.98;97016.03;5030523;28;20073;-69
2021/05/30 03:31:49;;;;;;;8.63;6.63;;;;;;;8.80;74.07;97020.66;5031997;28;20042;-69
2021/05/30 03:34:15;;;;;;;10.55;6.97;;;;;;;8.78;73.88;97020.13;5030682;28;20560;-69
2021/05/30 03:36:42;;;;;;;9.77;6.38;;;;;;;8.83;73.27;97020.06;5030725;28;20171;-68
2021/05/30 03:39:09;;;;;;;8.77;6.38;;;;;;;8.87;72.45;97014.84;5030465;28;20052;-68
2021/05/30 03:41:40;;;;;;;8.07;6.28;;;;;;;8.82;72.38;97017.63;5030765;28;20489;-69
2021/05/30 03:44:07;;;;;;;7.18;5.72;;;;;;;8.79;72.80;97019.03;5031097;28;20408;-69
2021/05/30 03:46:34;;;;;;;7.85;6.10;;;;;;;8.78;72.40;97019.34;5031573;28;20139;-69
2021/05/30 03:49:00;;;;;;;10.48;6.72;;;;;;;8.76;72.71;97013.38;5032041;28;20045;-69
2021/05/30 03:51:26;;;;;;;9.07;6.03;;;;;;;8.76;72.94;97013.38;5034114;28;20117;-69
2021/05/30 03:53:52;;;;;;;9.40;6.80;;;;;;;8.75;73.69;97011.75;5034534;28;20080;-68
2021/05/30 03:56:19;;;;;;;9.13;6.35;;;;;;;8.76;73.62;97007.94;5033924;28;20053;-69
2021/05/30 03:58:45;;;;;;;8.18;6.10;;;;;;;8.79;73.38;97018.22;5034500;28;20077;-69
2021/05/30 04:01:11;;;;;;;12.32;7.30;;;;;;;8.81;73.28;97018.72;5034700;28;20041;-69
2021/05/30 04:03:37;;;;;;;8.35;6.22;;;;;;;8.82;73.77;97018.47;5034251;28;20123;-69
2021/05/30 04:06:04;;;;;;;10.10;6.47;;;;;;;8.86;74.45;97021.38;5033807;28;20045;-69
2021/05/30 04:08:30;;;;;;;12.00;6.60;;;;;;;8.89;74.80;97029.78;5034225;28;20057;-68
2021/05/30 04:10:56;;;;;;;8.30;6.47;;;;;;;8.91;74.54;97021.31;5034232;28;20124;-69
2021/05/30 04:13:22;;;;;;;7.72;6.07;;;;;;;8.93;74.30;97024.56;5033912;28;20053;-69
2021/05/30 04:15:49;;;;;;;9.40;6.05;;;;;;;8.96;73.35;97023.97;5034135;28;20508;-69
2021/05/30 04:18:15;;;;;;;12.13;7.28;;;;;;;9.00;72.73;97029.66;5033627;28;20056;-69
2021/05/30 04:20:40;;;;;;;8.85;5.68;;;;;;;9.01;72.83;97020.41;5034092;28;20041;-69
2021/05/30 04:23:07;;;;;;;9.10;6.50;;;;;;;9.01;73.37;97021.19;5033333;28;20408;-69
2021/05/30 04:25:33;;;;;;;7.97;5.75;;;;;;;9.01;73.48;97026.63;5033886;28;20049;-69
2021/05/30 04:27:59;;;;;;;8.45;6.40;;;;;;;9.06;73.83;97021.13;5033628;28;20041;-68
2021/05/30 04:30:25;;;;;;;9.20;6.53;;;;;;;9.12;73.97;97014.53;5034936;28;20080;-69
2021/05/30 04:32:52;;;;;;;10.93;6.05;;;;;;;9.20;73.39;97017.72;5053721;28;20546;-69
2021/05/30 04:35:18;;;;;;;9.20;5.82;;;;;;;9.24;73.00;97019.56;5048609;28;20400;-69
2021/05/30 04:37:44;;;;;;;9.10;5.50;;;;;;;9.31;72.88;97024.63;5033239;28;20037;-69
2021/05/30 04:40:11;;;;;;;7.35;5.07;;;;;;;9.34;72.10;97024.00;5032771;28;20455;-68
2021/05/30 04:42:37;;;;;;;9.80;5.32;;;;;;;9.34;72.67;97019.41;5053067;28;20052;-68
2021/05/30 04:45:05;;;;;;;8.38;5.05;;;;;;;9.38;72.32;97025.06;5053133;28;20053;-68
2021/05/30 04:47:31;;;;;;;9.88;6.38;;;;;;;9.43;73.10;97024.97;5053469;28;20073;-68
2021/05/30 04:49:58;;;;;;;7.95;5.28;;;;;;;9.49;72.80;97020.28;5053347;28;20431;-69
2021/05/30 04:52:24;;;;;;;6.53;5.25;;;;;;;9.53;72.22;97027.56;5052588;28;20036;-68
2021/05/30 04:54:49;;;;;;;7.85;5.32;;;;;;;9.58;72.30;97024.75;5053319;28;20420;-68
2021/05/30 04:57:16;;;;;;;10.57;6.18;;;;;;;9.61;71.68;97039.69;5052668;28;20048;-68
2021/05/30 04:59:42;;;;;;;6.82;5.28;;;;;;;9.64;72.61;97034.44;5053234;28;20041;-69
2021/05/30 05:02:08;;;;;;;8.15;5.55;;;;;;;9.68;71.55;97035.47;5035821;28;20051;-68
2021/05/30 05:04:34;;;;;;;7.65;5.55;;;;;;;9.72;72.16;97024.03;5033316;28;20045;-68
2021/05/30 05:07:01;;;;;;;8.00;5.78;;;;;;;9.73;72.30;97025.63;5033204;28;20053;-68
2021/05/30 05:09:27;;;;;;;8.48;5.82;;;;;;;9.78;71.95;97033.72;5032995;28;20072;-68
2021/05/30 05:11:53;;;;;;;7.47;5.80;;;;;;;9.82;72.17;97024.66;5033313;28;20508;-69
2021/05/30 05:14:19;;;;;;;7.78;5.80;;;;;;;9.88;71.93;97028.13;5032753;28;20412;-68
2021/05/30 05:16:45;;;;;;;10.90;6.78;;;;;;;9.91;72.00;97020.16;5032973;28;20049;-68
2021/05/30 05:19:11;;;;;;;7.20;5.63;;;;;;;9.97;72.05;97018.19;5032619;28;20133;-68
2021/05/30 05:21:37;;;;;;;10.23;5.95;;;;;;;10.02;71.26;97018.06;5033024;28;20037;-68
2021/05/30 05:24:06;;;;;;;8.80;5.43;;;;;;;10.06;70.21;97024.53;5032329;28;20394;-68
2021/05/30 05:26:32;;;;;;;10.93;6.68;;;;;;;10.08;70.67;97025.06;5032810;28;20496;-69
2021/05/30 05:28:58;;;;;;;9.18;6.38;;;;;;;10.16;70.55;97021.63;5032629;28;20037;-68
2021/05/30 05:31:24;;;;;;;7.47;5.63;;;;;;;10.20;70.62;97025.38;5033143;28;20045;-68
2021/05/30 05:33:50;;;;;;;8.63;5.93;;;;;;;10.26;70.76;97023.41;5032477;28;20084;-68
2021/05/30 05:36:16;;;;;;;9.48;6.32;;;;;;;10.32;70.87;97021.41;5032148;28;20142;-69
2021/05/30 05:38:43;;;;;;;8.45;6.03;;;;;;;10.36;70.69;97017.78;5032619;28;20053;-68
2021/05/30 05:41:10;;;;;;;8.43;5.10;;;;;;;10.38;70.78;97021.00;5032211;28;20052;-69
2021/05/30 05:43:36;;;;;;;9.95;5.95;;;;;;;10.44;70.43;97019.81;5032371;28;20415;-68
2021/05/30 05:46:01;;;;;;;8.45;5.85;;;;;;;10.47;70.09;97023.84;5032196;28;20120;-68
2021/05/30 05:48:28;;;;;;;9.20;5.82;;;;;;;10.52;69.07;97026.47;5032237;28;20046;-68
2021/05/30 05:50:54;;;;;;;8.95;6.10;;;;;;;10.60;68.51;97023.06;5032051;28;20052;-68
2021/05/30 05:53:19;;;;;;;8.80;6.55;;;;;;;10.67;69.45;97031.63;5031847;28;20552;-68
2021/05/30 05:55:45;;;;;;;11.07;6.38;;;;;;;10.70;67.61;97028.31;5032261;28;20069;-68
2021/05/30 05:58:12;;;;;;;9.27;6.97;;;;;;;10.76;68.58;97025.50;5031465;28;20049;-68
2021/05/30 06:00:38;;;;;;;10.60;6.60;;;;;;;10.81;69.17;97033.56;5032933;28;20045;-68
2021/05/30 06:03:05;;;;;;;9.07;6.13;;;;;;;10.84;69.46;97032.94;5031727;28;20049;-68
2021/05/30 06:05:31;;;;;;;14.45;6.82;;;;;;;10.88;68.97;97031.25;5031929;28;20041;-68
2021/05/30 06:07:58;;;;;;;9.35;6.50;;;;;;;10.95;69.60;97021.53;5031988;28;20079;-68
2021/05/30 06:10:26;;;;;;;10.25;7.00;;;;;;;11.02;69.09;97034.78;5031506;28;20049;-68
2021/05/30 06:12:52;;;;;;;9.40;6.80;;;;;;;11.10;67.67;97027.78;5032000;28;20052;-68
2021/05/30 06:15:21;;;;;;;10.07;6.47;;;;;;;11.15;67.70;97025.75;5031512;28;20060;-68
2021/05/30 06:17:51;;;;;;;9.13;6.53;;;;;;;11.23;67.46;97025.06;5031975;28;20066;-67
2021/05/30 06:20:18;;;;;;;13.02;6.82;;;;;;;11.26;67.22;97041.91;5031403;28;20049;-67
2021/05/30 06:22:44;;;;;;;10.63;6.72;;;;;;;11.33;67.73;97032.22;5031818;28;20447;-68
2021/05/30 06:25:11;;;;;;;14.43;7.82;;;;;;;11.45;68.16;97037.13;5030489;28;20128;-71
2021/05/30 06:27:37;;;;;;;11.30;6.95;;;;;;;11.58;68.11;97039.00;5028949;28;20053;-69
2021/05/30 06:30:04;;;;;;;10.13;6.65;;;;;;;11.71;68.05;97029.97;5028554;28;20056;-70
2021/05/30 06:32:31;;;;;;;11.45;6.38;;;;;;;11.83;66.59;97032.16;5028596;28;20057;-69
2021/05/30 06:34:57;;;;;;;8.90;6.72;;;;;;;11.90;66.65;97029.00;5028097;28;20056;-69
2021/05/30 06:37:23;;;;;;;9.15;6.82;;;;;;;11.94;66.28;97028.09;5027938;28;20519;-69
2021/05/30 06:39:49;;;;;;;9.68;6.47;;;;;;;12.02;65.94;97018.34;5028872;28;20044;-69
2021/05/30 06:42:15;;;;;;;13.13;6.68;;;;;;;12.07;65.24;97015.50;5028267;28;20132;-68
2021/05/30 06:44:41;;;;;;;10.82;7.07;;;;;;;12.15;66.13;97017.47;5028715;28;20049;-69
2021/05/30 06:47:07;;;;;;;8.90;6.25;;;;;;;12.26;65.57;97016.09;5028203;28;20408;-69
2021/05/30 06:49:35;;;;;;;12.07;7.15;;;;;;;12.36;65.96;97025.13;5028915;28;20107;-70
2021/05/30 06:52:01;;;;;;;13.38;6.75;;;;;;;12.46;65.44;97022.13;5028487;28;20046;-71
2021/05/30 06:54:27;;;;;;;8.77;6.57;;;;;;;12.53;64.80;97015.13;5028491;28;20049;-69
2021/05/30 06:56:53;;;;;;;9.65;7.22;;;;;;;12.57;64.80;97023.47;5028721;28;20060;-70
2021/05/30 06:59:19;;;;;;;10.63;6.53;;;;;;;12.70;65.92;97028.03;5028276;28;20071;-69
2021/05/30 07:01:46;;;;;;;12.00;7.55;;;;;;;12.74;63.49;97022.78;5029689;28;20053;-69
2021/05/30 07:04:12;;;;;;;10.38;6.63;;;;;;;12.76;64.06;97021.31;5028257;28;20055;-70
2021/05/30 07:06:39;;;;;;;9.45;6.63;;;;;;;12.73;62.43;97011.00;5028065;28;20404;-69
2021/05/30 07:09:06;;;;;;;11.02;7.03;;;;;;;12.78;62.66;97021.00;5028196;28;20059;-69
2021/05/30 07:11:33;;;;;;;9.43;6.75;;;;;;;12.92;63.26;97018.97;5028437;28;20504;-69
2021/05/30 07:13:59;;;;;;;9.40;7.30;;;;;;;12.99;63.76;97027.50;5028540;28;20119;-69
2021/05/30 07:16:25;;;;;;;9.18;6.25;;;;;;;13.05;63.92;97011.78;5028051;28;20037;-69
2021/05/30 07:18:51;;;;;;;11.93;6.85;;;;;;;13.18;64.71;97020.97;5028945;28;20141;-69
2021/05/30 07:21:17;;;;;;;11.38;7.18;;;;;;;13.27;64.64;97019.91;5028075;28;20497;-69
2021/05/30 07:23:44;;;;;;;11.05;6.90;;;;;;;13.21;62.75;97018.44;5028632;28;20095;-69
2021/05/30 07:26:10;;;;;;;12.07;7.18;;;;;;;13.32;62.93;97022.47;5031368;28;20045;-69
2021/05/30 07:28:36;;;;;;;10.77;7.13;;;;;;;13.36;61.67;97011.69;5032172;28;20094;-69
2021/05/30 07:31:02;;;;;;;9.85;6.82;;;;;;;13.46;61.73;97002.38;5038891;28;20065;-70
2021/05/30 07:33:28;;;;;;;7.95;6.10;;;;;;;13.51;61.36;97007.69;5052663;28;20057;-69
2021/05/30 07:35:54;;;;;;;10.20;6.68;;;;;;;13.60;61.13;97005.75;5052009;28;20044;-70
2021/05/30 07:38:21;;;;;;;10.15;7.07;;;;;;;13.63;61.89;97005.13;5052187;28;20154;-70
2021/05/30 07:40:48;;;;;;;11.68;6.82;;;;;;;13.78;61.58;97001.91;5052425;28;20048;-69
2021/05/30 07:43:14;;;;;;;14.63;6.95;;;;;;;13.92;60.05;97007.22;5052165;28;20052;-69
2021/05/30 07:45:41;;;;;;;10.35;6.70;;;;;;;13.99;60.36;96995.75;5052034;28;20135;-69
2021/05/30 07:48:08;;;;;;;11.23;7.10;;;;;;;14.02;62.46;96995.91;5051637;28;20055;-69
2021/05/30 07:50:35;;;;;;;10.13;5.75;;;;;;;14.14;62.17;96999.94;5051947;28;20492;-70
2021/05/30 07:53:01;;;;;;;8.35;5.45;;;;;;;14.32;60.61;96996.84;5052001;28;20631;-70
2021/05/30 07:55:27;;;;;;;9.40;6.32;;;;;;;14.54;59.69;96990.34;5051659;28;20079;-70
2021/05/30 07:57:54;;;;;;;7.78;5.70;;;;;;;14.73;60.63;97002.88;5052195;28;20483;-70
2021/05/30 08:00:21;;;;;;;7.75;4.60;;;;;;;14.82;51.99;96995.38;5050601;28;20559;-70
2021/05/30 08:02:47;;;;;;;9.07;5.57;;;;;;;14.88;55.64;96991.34;5031761;28;20056;-69
2021/05/30 08:05:18;;;;;;;5.50;3.85;;;;;;;15.04;53.92;96999.81;5031557;28;20054;-69
2021/05/30 08:07:44;;;;;;;5.70;3.95;;;;;;;16.17;54.50;96997.03;5031684;28;20052;-69
2021/05/30 08:10:11;;;;;;;5.65;3.17;;;;;;;17.87;42.47;96983.69;5031048;28;20046;-69
2021/05/30 08:12:37;;;;;;;5.93;3.45;;;;;;;18.51;39.96;96983.47;5030168;28;20108;-69
2021/05/30 08:15:06;;;;;;;4.70;2.90;;;;;;;18.07;40.32;96981.88;5030739;28;20504;-69
2021/05/30 08:17:32;;;;;;;4.90;3.00;;;;;;;18.97;40.15;96981.13;5030454;28;20076;-69
2021/05/30 08:19:58;;;;;;;6.57;3.00;;;;;;;20.17;35.80;96980.59;5030342;28;20776;-69
2021/05/30 08:22:24;;;;;;;5.72;2.55;;;;;;;21.30;36.30;96983.81;5030308;28;20071;-69
2021/05/30 08:24:50;;;;;;;4.32;2.50;;;;;;;21.46;31.27;96990.00;5030144;28;20050;-69
2021/05/30 08:27:18;;;;;;;4.60;2.03;;;;;;;21.95;28.03;96975.22;5029953;28;20056;-69
2021/05/30 08:29:44;;;;;;;3.03;1.98;;;;;;;22.80;26.93;96972.56;5029941;28;20041;-69
2021/05/30 08:32:11;;;;;;;3.20;2.40;;;;;;;23.49;28.53;96971.97;5046246;28;20175;-69
2021/05/30 08:34:37;;;;;;;4.20;2.25;;;;;;;24.15;24.44;96969.91;5049446;28;20701;-69
2021/05/30 08:37:04;;;;;;;6.15;2.20;;;;;;;24.63;23.72;96966.88;5048575;28;20412;-69
2021/05/30 08:39:30;;;;;;;4.93;2.17;;;;;;;25.15;24.01;96964.56;5049372;28;20049;-69
2021/05/30 08:41:56;;;;;;;4.22;2.30;;;;;;;24.99;24.52;96978.06;5050202;28;20124;-69
2021/05/30 08:44:22;;;;;;;5.80;2.60;;;;;;;25.08;24.08;96975.72;5049197;28;20053;-70
2021/05/30 08:46:48;;;;;;;4.25;2.30;;;;;;;25.33;24.20;96981.28;5049578;28;20049;-70
2021/05/30 08:49:15;;;;;;;4.97;2.80;;;;;;;25.36;25.47;96974.09;5049327;28;20049;-70
2021/05/30 08:51:42;;;;;;;3.90;2.55;;;;;;;24.65;24.40;96975.66;5048963;28;20045;-70
2021/05/30 08:54:10;;;;;;;3.17;2.35;;;;;;;24.77;25.14;96970.91;5049384;28;20053;-70
2021/05/30 08:56:39;;;;;;;3.70;2.42;;;;;;;25.11;24.80;96985.25;5048680;28;20063;-69
2021/05/30 08:59:20;;;;;;;3.88;2.50;;;;;;;25.56;21.64;96977.28;5049797;28;20041;-70
2021/05/30 09:01:47;;;;;;;4.55;2.20;;;;;;;25.64;21.02;96974.06;5036111;28;20053;-70
2021/05/30 09:04:14;;;;;;;5.80;2.50;;;;;;;24.73;22.98;96976.47;5029307;28;20045;-69
2021/05/30 09:06:42;;;;;;;5.03;2.70;;;;;;;24.43;24.15;96974.00;5028708;28;20489;-70
2021/05/30 09:09:09;;;;;;;3.00;2.40;;;;;;;24.41;25.53;96970.81;5028789;28;20076;-70
2021/05/30 09:11:37;;;;;;;6.35;3.28;;;;;;;23.90;26.62;96969.81;5029701;28;20489;-71
2021/05/30 09:14:05;;;;;;;4.57;2.90;;;;;;;23.78;25.90;96967.38;5028934;28;20063;-70
2021/05/30 09:16:51;;;;;;;3.95;2.90;;;;;;;23.45;28.48;96968.34;5029733;28;20068;-70
2021/05/30 09:19:31;;;;;;;4.40;2.70;;;;;;;22.86;27.37;96968.25;5028360;28;20049;-69
2021/05/30 09:22:14;;;;;;;6.20;2.75;;;;;;;22.28;28.52;96970.84;5029817;28;20049;-70
2021/05/30 09:24:40;;;;;;;4.25;2.90;;;;;;;21.80;28.22;96967.88;5029086;28;20516;-70
2021/05/30 09:27:10;;;;;;;4.32;2.88;;;;;;;21.42;30.02;96978.06;5028314;28;20056;-70
2021/05/30 09:29:36;;;;;;;3.83;2.40;;;;;;;21.13;31.22;96973.22;5029221;28;20111;-69
2021/05/30 09:32:02;;;;;;;4.57;2.90;;;;;;;20.71;31.01;96969.38;5029136;28;20497;-70
2021/05/30 09:34:30;;;;;;;4.47;2.60;;;;;;;20.53;30.51;96969.06;5029223;28;20049;-69
2021/05/30 09:36:56;;;;;;;4.07;2.88;;;;;;;20.29;33.00;96963.84;5028338;28;20060;-69
2021/05/30 09:39:39;;;;;;;4.22;2.67;;;;;;;20.25;33.40;96958.22;5028986;28;20049;-69
2021/05/30 09:42:25;;;;;;;5.77;3.13;;;;;;;20.30;33.81;96960.69;5026485;28;20053;-69
2021/05/30 09:44:55;;;;;;;6.90;2.53;;;;;;;20.36;28.47;96969.53;5028884;28;20046;-70
2021/05/30 09:47:34;;;;;;;4.70;2.53;;;;;;;20.19;29.83;96964.44;5027839;28;20064;-69
2021/05/30 09:50:04;;;;;;;5.20;2.70;;;;;;;20.01;29.40;96961.34;5028539;28;20796;-70
2021/05/30 09:52:37;;;;;;;3.70;2.20;;;;;;;19.93;32.32;96967.88;5028830;28;20140;-70
2021/05/30 09:55:15;;;;;;;3.53;2.33;;;;;;;19.97;29.12;96964.03;5027700;28;20053;-69
2021/05/30 09:58:03;;;;;;;4.57;2.67;;;;;;;19.98;30.85;96965.59;5029162;28;20049;-69
2021/05/30 10:00:29;;;;;;;4.97;2.70;;;;;;;20.18;31.56;96971.13;5030464;28;20049;-69
2021/05/30 10:02:55;;;;;;;3.78;2.15;;;;;;;20.35;32.00;96973.44;5048952;28;20048;-69
2021/05/30 10:05:21;;;;;;;6.25;2.17;;;;;;;20.39;26.77;96968.78;5047828;28;20443;-70
2021/05/30 10:07:48;;;;;;;6.18;2.40;;;;;;;20.17;30.58;96969.53;5048430;28;20079;-69
2021/05/30 10:10:16;;;;;;;6.50;2.80;;;;;;;20.26;33.65;96967.34;5048161;28;20052;-69
2021/05/30 10:12:43;;;;;;;4.32;2.90;;;;;;;20.41;34.19;96977.53;5048037;28;20045;-69
2021/05/30 10:15:11;;;;;;;6.88;2.35;;;;;;;20.58;30.27;96971.53;5048640;28;20139;-70
2021/05/30 10:17:40;;;;;;;4.43;2.30;;;;;;;20.66;31.02;96971.66;5048234;28;20048;-69
2021/05/30 10:20:10;;;;;;;4.70;2.45;;;;;;;20.46;28.68;96963.38;5047992;28;20072;-69
2021/05/30 10:22:37;;;;;;;4.90;2.63;;;;;;;20.46;30.04;96965.31;5047687;28;20135;-70
2021/05/30 10:25:04;;;;;;;5.45;2.65;;;;;;;20.52;29.87;96961.16;5047923;28;20091;-70
2021/05/30 10:27:31;;;;;;;4.07;2.72;;;;;;;20.49;29.88;96973.72;5047979;28;20048;-70
2021/05/30 10:30:16;;;;;;;5.03;2.33;;;;;;;20.37;28.74;96971.13;5048201;28;20642;-71
2021/05/30 10:32:44;;;;;;;4.22;2.55;;;;;;;20.30;30.37;96970.97;5011140;28;20465;-70
2021/05/30 10:35:18;;;;;;;4.93;2.50;;;;;;;20.23;29.12;96968.06;5027268;28;20050;-70
2021/05/30 10:37:46;;;;;;;3.53;2.60;;;;;;;20.17;33.70;96961.25;5029040;28;20069;-70
2021/05/30 10:40:32;;;;;;;5.07;2.70;;;;;;;20.06;29.60;96967.38;5027301;28;20057;-70
2021/05/30 10:43:20;;;;;;;3.85;2.17;;;;;;;20.12;28.80;96964.31;5027961;28;20091;-69
2021/05/30 10:46:05;;;;;;;4.20;2.13;;;;;;;20.22;27.50;96969.25;5028356;28;20045;-69
2021/05/30 10:48:31;;;;;;;4.93;2.30;;;;;;;20.23;26.68;96959.78;5027116;28;20048;-69
2021/05/30 10:54:08;;;;;;;4.53;2.55;;;;;;;20.45;30.43;96967.31;5021998;28;20064;-70
2021/05/30 10:56:37;;;;;;;5.00;2.63;;;;;;;20.46;28.73;96963.38;5027641;28;20072;-70
2021/05/30 10:59:26;;;;;;;3.88;2.72;;;;;;;20.44;28.35;96964.91;5026840;28;20431;-70
2021/05/30 11:01:53;;;;;;;4.10;2.58;;;;;;;20.56;30.44;96962.00;5039659;28;20045;-69
2021/05/30 11:04:36;;;;;;;3.72;2.75;;;;;;;20.51;28.16;96971.38;5047859;28;20652;-70
2021/05/30 11:07:05;;;;;;;4.18;2.60;;;;;;;20.49;29.34;96959.91;5046590;28;20045;-70
2021/05/30 11:10:06;;;;;;;5.43;3.00;;;;;;;20.56;29.48;96965.56;5048002;28;20152;-70
2021/05/30 11:12:33;;;;;;;4.47;2.80;;;;;;;20.55;33.05;96977.78;5047532;28;20049;-70
2021/05/30 11:15:19;;;;;;;5.32;2.78;;;;;;;20.55;29.88;96961.19;5047361;28;20083;-69
2021/05/30 11:17:47;;;;;;;4.70;3.13;;;;;;;20.65;31.38;96964.53;5047846;28;20294;-69
2021/05/30 11:20:15;;;;;;;5.32;2.97;;;;;;;20.54;30.96;96959.59;5046511;28;20056;-69
2021/05/30 11:22:41;;;;;;;3.60;2.63;;;;;;;20.43;27.42;96964.13;5047993;28;20041;-69
2021/05/30 11:25:09;;;;;;;4.97;4.00;;;;;;;20.25;27.89;96962.97;5046484;28;20049;-69
2021/05/30 11:27:48;;;;;;;8.50;3.20;;;;;;;20.23;31.13;96965.31;5047697;28;20484;-70
2021/05/30 11:30:48;;;;;;;8.57;3.40;;;;;;;20.20;32.10;96960.50;5046892;28;20049;-69
2021/05/30 11:33:26;;;;;;;4.65;2.90;;;;;;;20.11;29.52;96951.66;5004646;28;20093;-69
2021/05/30 11:35:55;;;;;;;6.45;3.35;;;;;;;20.09;33.52;96957.53;5008444;28;20052;-70
2021/05/30 11:38:32;;;;;;;7.68;3.20;;;;;;;20.04;33.15;96955.06;5006871;28;21061;-70
2021/05/30 11:41:08;;;;;;;4.25;3.00;;;;;;;20.08;31.06;96951.19;5008227;28;20042;-69
2021/05/30 11:43:34;;;;;;;6.45;3.55;;;;;;;20.06;32.33;96945.25;5007461;28;20046;-69